createdAt,value
2018-01-02T00:00:55.749Z,3.03
2018-01-02T00:01:55.722Z,3.07
2018-01-02T00:02:55.699Z,3.00
2018-01-02T00:03:55.674Z,3.10
2018-01-02T00:04:55.648Z,3.07
2018-01-02T00:05:55.628Z,3.05
2018-01-02T00:06:55.598Z,3.00
2018-01-02T00:07:55.575Z,3.00
2018-01-02T00:08:55.549Z,3.04
2018-01-02T00:09:55.524Z,2.98
2018-01-02T00:10:55.499Z,3.07
2018-01-02T00:11:55.475Z,3.07
2018-01-02T00:12:55.450Z,3.00
2018-01-02T00:13:55.423Z,3.03
2018-01-02T00:14:55.400Z,3.08
2018-01-02T00:15:55.375Z,3.00
2018-01-02T00:16:55.350Z,3.04
2018-01-02T00:17:55.324Z,3.10
2018-01-02T00:18:55.300Z,3.14
2018-01-02T00:19:55.274Z,3.03
2018-01-02T00:20:55.249Z,3.11
2018-01-02T00:21:55.224Z,2.98
2018-01-02T00:22:55.200Z,2.98
2018-01-02T00:23:55.176Z,3.08
2018-01-02T00:24:55.150Z,3.08
2018-01-02T00:25:55.125Z,3.21
2018-01-02T00:26:55.901Z,3.03
2018-01-02T00:27:55.078Z,3.00
2018-01-02T00:28:55.051Z,2.98
2018-01-02T00:29:55.026Z,3.03
2018-01-02T00:30:55.001Z,3.03
2018-01-02T00:31:54.975Z,3.05
2018-01-02T00:32:55.252Z,3.05
2018-01-02T00:33:54.926Z,3.10
2018-01-02T00:34:54.901Z,3.01
2018-01-02T00:35:54.876Z,3.08
2018-01-02T00:36:54.852Z,2.97
2018-01-02T00:37:54.825Z,2.97
2018-01-02T00:38:54.800Z,3.01
2018-01-02T00:39:54.780Z,3.01
2018-01-02T00:40:54.752Z,3.07
2018-01-02T00:41:54.726Z,3.05
2018-01-02T00:42:54.802Z,3.03
2018-01-02T00:43:54.677Z,3.01
2018-01-02T00:44:54.653Z,2.93
2018-01-02T00:45:54.627Z,2.87
2018-01-02T00:46:54.602Z,2.93
2018-01-02T00:47:54.827Z,2.93
2018-01-02T00:48:54.554Z,2.92
2018-01-02T00:49:54.528Z,2.89
2018-01-02T00:50:54.503Z,2.89
2018-01-02T00:51:54.478Z,2.87
2018-01-02T00:52:54.703Z,2.85
2018-01-02T00:53:54.428Z,2.83
2018-01-02T00:54:54.403Z,2.74
2018-01-02T00:55:54.380Z,2.80
2018-01-02T00:56:54.353Z,2.82
2018-01-02T00:57:54.328Z,2.83
2018-01-02T00:58:54.303Z,2.86
2018-01-02T00:59:54.279Z,2.72
2018-01-02T01:00:54.253Z,2.85
2018-01-02T01:01:54.229Z,2.72
2018-01-02T01:02:55.004Z,2.82
2018-01-02T01:03:54.179Z,2.75
2018-01-02T01:04:54.154Z,2.79
2018-01-02T01:05:54.128Z,2.82
2018-01-02T01:06:54.104Z,2.77
2018-01-02T01:07:54.079Z,2.77
2018-01-02T01:08:54.055Z,2.74
2018-01-02T01:09:54.029Z,2.75
2018-01-02T01:10:54.004Z,2.79
2018-01-02T01:11:53.979Z,2.77
2018-01-02T01:12:53.953Z,2.79
2018-01-02T01:13:53.927Z,2.85
2018-01-02T01:14:53.902Z,2.72
2018-01-02T01:15:53.878Z,2.72
2018-01-02T01:16:53.853Z,2.74
2018-01-02T01:17:53.827Z,2.85
2018-01-02T01:18:53.802Z,2.87
2018-01-02T01:19:53.777Z,2.85
2018-01-02T01:20:53.751Z,2.85
2018-01-02T01:21:53.726Z,2.87
2018-01-02T01:22:54.844Z,2.87
2018-01-02T01:23:53.675Z,2.85
2018-01-02T01:24:53.651Z,2.85
2018-01-02T01:25:53.624Z,2.82
2018-01-02T01:26:53.600Z,2.83
2018-01-02T01:27:53.574Z,2.86
2018-01-02T01:28:53.549Z,2.89
2018-01-02T01:29:53.523Z,2.86
2018-01-02T01:30:53.500Z,2.86
2018-01-02T01:31:53.473Z,2.93
2018-01-02T01:32:53.448Z,2.86
2018-01-02T01:33:53.421Z,2.90
2018-01-02T01:34:53.396Z,2.90
2018-01-02T01:35:53.371Z,2.90
2018-01-02T01:36:53.347Z,2.89
2018-01-02T01:37:53.319Z,2.89
2018-01-02T01:38:53.294Z,2.90
2018-01-02T01:39:53.270Z,2.95
2018-01-02T01:40:53.246Z,2.93
2018-01-02T01:41:53.219Z,2.86
2018-01-02T01:42:53.193Z,2.87
2018-01-02T01:43:53.168Z,2.90
2018-01-02T01:44:53.143Z,2.90
2018-01-02T01:45:53.124Z,2.92
2018-01-02T01:46:53.091Z,2.86
2018-01-02T01:47:53.068Z,2.89
2018-01-02T01:48:53.042Z,2.92
2018-01-02T01:49:53.267Z,2.90
2018-01-02T01:50:52.990Z,2.87
2018-01-02T01:51:52.965Z,2.89
2018-01-02T01:52:52.941Z,2.86
2018-01-02T01:53:52.915Z,2.83
2018-01-02T01:54:52.992Z,2.83
2018-01-02T01:55:52.864Z,2.86
2018-01-02T01:56:52.839Z,2.85
2018-01-02T01:57:52.813Z,2.80
2018-01-02T01:58:52.788Z,2.80
2018-01-02T01:59:52.764Z,2.74
2018-01-02T02:00:52.738Z,2.75
2018-01-02T02:01:52.712Z,2.82
2018-01-02T02:02:52.688Z,2.75
2018-01-02T02:03:52.663Z,2.79
2018-01-02T02:04:52.638Z,2.77
2018-01-02T02:05:52.611Z,2.75
2018-01-02T02:06:52.586Z,2.72
2018-01-02T02:07:52.562Z,2.74
2018-01-02T02:08:53.337Z,2.79
2018-01-02T02:09:52.510Z,2.72
2018-01-02T02:10:52.486Z,2.79
2018-01-02T02:11:52.462Z,2.74
2018-01-02T02:12:52.434Z,2.79
2018-01-02T02:13:52.409Z,2.77
2018-01-02T02:14:52.383Z,2.72
2018-01-02T02:15:52.358Z,2.77
2018-01-02T02:16:52.334Z,2.74
2018-01-02T02:17:52.307Z,2.75
2018-01-02T02:18:52.282Z,2.75
2018-01-02T02:19:52.258Z,2.64
2018-01-02T02:20:52.235Z,2.57
2018-01-02T02:21:52.206Z,2.69
2018-01-02T02:22:52.181Z,2.65
2018-01-02T02:23:52.155Z,2.62
2018-01-02T02:24:52.132Z,2.64
2018-01-02T02:25:52.106Z,2.71
2018-01-02T02:26:52.079Z,2.69
2018-01-02T02:27:52.055Z,2.61
2018-01-02T02:28:52.030Z,2.64
2018-01-02T02:29:52.003Z,2.67
2018-01-02T02:30:51.979Z,2.69
2018-01-02T02:31:51.953Z,2.64
2018-01-02T02:32:51.929Z,2.62
2018-01-02T02:33:51.903Z,2.69
2018-01-02T02:34:51.878Z,2.57
2018-01-02T02:35:51.852Z,2.64
2018-01-02T02:36:51.827Z,2.56
2018-01-02T02:37:51.801Z,2.53
2018-01-02T02:38:51.775Z,2.54
2018-01-02T02:39:51.750Z,2.54
2018-01-02T02:40:51.725Z,2.53
2018-01-02T02:41:51.700Z,2.62
2018-01-02T02:42:51.674Z,2.50
2018-01-02T02:43:51.650Z,2.54
2018-01-02T02:44:51.625Z,2.54
2018-01-02T02:45:51.599Z,2.53
2018-01-02T02:46:51.574Z,2.56
2018-01-02T02:47:51.548Z,2.53
2018-01-02T02:48:51.523Z,2.60
2018-01-02T02:49:51.497Z,2.60
2018-01-02T02:50:51.473Z,2.54
2018-01-02T02:51:51.447Z,2.53
2018-01-02T02:52:51.423Z,2.54
2018-01-02T02:53:51.396Z,2.60
2018-01-02T02:54:51.372Z,2.62
2018-01-02T02:55:51.346Z,2.57
2018-01-02T02:56:51.321Z,2.57
2018-01-02T02:57:51.297Z,2.62
2018-01-02T02:58:51.271Z,2.56
2018-01-02T02:59:51.245Z,2.53
2018-01-02T03:00:51.221Z,2.57
2018-01-02T03:01:51.195Z,2.60
2018-01-02T03:02:51.168Z,2.62
2018-01-02T03:03:51.144Z,2.53
2018-01-02T03:04:51.119Z,2.49
2018-01-02T03:05:51.092Z,2.60
2018-01-02T03:06:51.068Z,2.50
2018-01-02T03:07:51.043Z,2.49
2018-01-02T03:08:51.017Z,2.57
2018-01-02T03:09:50.991Z,2.50
2018-01-02T03:10:50.967Z,2.50
2018-01-02T03:11:50.942Z,2.54
2018-01-02T03:12:50.916Z,2.49
2018-01-02T03:13:50.890Z,2.54
2018-01-02T03:14:50.865Z,2.50
2018-01-02T03:15:50.840Z,2.57
2018-01-02T03:16:50.819Z,2.60
2018-01-02T03:17:50.789Z,2.36
2018-01-02T03:18:50.765Z,2.57
2018-01-02T03:19:50.741Z,2.50
2018-01-02T03:20:50.715Z,2.51
2018-01-02T03:21:50.690Z,2.61
2018-01-02T03:22:50.668Z,2.61
2018-01-02T03:23:50.639Z,2.61
2018-01-02T03:24:50.615Z,2.49
2018-01-02T03:25:50.689Z,2.50
2018-01-02T03:26:50.565Z,2.51
2018-01-02T03:27:50.541Z,2.61
2018-01-02T03:28:50.514Z,2.50
2018-01-02T03:29:50.487Z,2.61
2018-01-02T03:30:50.462Z,2.49
2018-01-02T03:31:50.438Z,2.49
2018-01-02T03:32:50.412Z,2.49
2018-01-02T03:33:50.386Z,2.62
2018-01-02T03:34:50.360Z,2.61
2018-01-02T03:35:50.486Z,2.53
2018-01-02T03:36:50.311Z,2.60
2018-01-02T03:37:50.284Z,2.56
2018-01-02T03:38:50.259Z,2.65
2018-01-02T03:39:50.233Z,2.65
2018-01-02T03:40:50.510Z,2.68
2018-01-02T03:41:50.183Z,2.79
2018-01-02T03:42:50.157Z,2.77
2018-01-02T03:43:50.133Z,2.79
2018-01-02T03:44:50.108Z,2.77
2018-01-02T03:45:50.181Z,2.72
2018-01-02T03:46:50.058Z,2.82
2018-01-02T03:47:50.033Z,2.85
2018-01-02T03:48:50.007Z,2.85
2018-01-02T03:49:49.981Z,2.87
2018-01-02T03:50:49.957Z,2.93
2018-01-02T03:51:49.931Z,2.90
2018-01-02T03:52:49.906Z,2.92
2018-01-02T03:53:49.880Z,2.90
2018-01-02T03:54:49.856Z,2.95
2018-01-02T03:55:49.831Z,2.89
2018-01-02T03:56:49.808Z,3.05
2018-01-02T03:57:49.782Z,2.93
2018-01-02T03:58:49.757Z,3.00
2018-01-02T03:59:49.731Z,3.00
2018-01-02T04:00:50.008Z,2.97
2018-01-02T04:01:49.682Z,3.05
2018-01-02T04:02:49.658Z,3.08
2018-01-02T04:03:49.633Z,3.01
2018-01-02T04:04:49.608Z,2.98
2018-01-02T04:05:49.583Z,2.97
2018-01-02T04:06:49.563Z,3.03
2018-01-02T04:07:49.532Z,2.95
2018-01-02T04:08:49.507Z,3.00
2018-01-02T04:09:49.483Z,3.01
2018-01-02T04:10:49.505Z,3.00
2018-01-02T04:11:49.433Z,3.00
2018-01-02T04:12:49.658Z,3.03
2018-01-02T04:13:49.382Z,3.04
2018-01-02T04:14:49.358Z,3.05
2018-01-02T04:15:49.334Z,2.98
2018-01-02T04:16:49.309Z,3.05
2018-01-02T04:17:49.283Z,3.04
2018-01-02T04:18:49.258Z,3.13
2018-01-02T04:19:49.233Z,3.05
2018-01-02T04:20:49.209Z,3.13
2018-01-02T04:21:49.184Z,3.10
2018-01-02T04:22:49.158Z,3.03
2018-01-02T04:23:49.135Z,3.08
2018-01-02T04:24:49.110Z,3.08
2018-01-02T04:25:49.085Z,3.14
2018-01-02T04:26:49.058Z,3.11
2018-01-02T04:27:49.034Z,3.13
2018-01-02T04:28:49.009Z,3.19
2018-01-02T04:29:48.984Z,3.11
2018-01-02T04:30:49.760Z,3.11
2018-01-02T04:31:48.934Z,3.16
2018-01-02T04:32:48.910Z,3.16
2018-01-02T04:33:48.884Z,3.19
2018-01-02T04:34:48.859Z,3.23
2018-01-02T04:35:48.835Z,3.22
2018-01-02T04:36:48.811Z,3.22
2018-01-02T04:37:48.784Z,3.19
2018-01-02T04:38:48.760Z,3.21
2018-01-02T04:39:48.735Z,3.29
2018-01-02T04:40:48.811Z,3.29
2018-01-02T04:41:48.684Z,3.28
2018-01-02T04:42:48.660Z,3.29
2018-01-02T04:43:48.636Z,3.32
2018-01-02T04:44:48.611Z,3.26
2018-01-02T04:45:48.585Z,3.31
2018-01-02T04:46:48.561Z,3.34
2018-01-02T04:47:48.536Z,3.40
2018-01-02T04:48:48.511Z,3.29
2018-01-02T04:49:48.486Z,3.34
2018-01-02T04:50:48.462Z,3.36
2018-01-02T04:51:48.437Z,3.36
2018-01-02T04:52:48.411Z,3.36
2018-01-02T04:53:48.386Z,3.40
2018-01-02T04:54:48.363Z,3.40
2018-01-02T04:55:48.337Z,3.44
2018-01-02T04:56:48.312Z,3.41
2018-01-02T04:57:48.288Z,3.36
2018-01-02T04:58:48.264Z,3.40
2018-01-02T04:59:48.238Z,3.34
2018-01-02T05:00:48.216Z,3.40
2018-01-02T05:01:48.189Z,3.50
2018-01-02T05:02:48.165Z,3.47
2018-01-02T05:03:48.139Z,3.45
2018-01-02T05:04:48.115Z,3.45
2018-01-02T05:05:48.090Z,3.41
2018-01-02T05:06:48.066Z,3.53
2018-01-02T05:07:48.041Z,3.44
2018-01-02T05:08:48.017Z,3.50
2018-01-02T05:09:47.991Z,3.48
2018-01-02T05:10:47.965Z,3.41
2018-01-02T05:11:47.941Z,3.41
2018-01-02T05:12:47.916Z,3.44
2018-01-02T05:13:47.892Z,3.53
2018-01-02T05:14:47.866Z,3.45
2018-01-02T05:15:47.842Z,3.47
2018-01-02T05:16:47.817Z,3.47
2018-01-02T05:17:47.792Z,3.47
2018-01-02T05:18:47.767Z,3.45
2018-01-02T05:19:47.743Z,3.41
2018-01-02T05:20:47.719Z,3.40
2018-01-02T05:21:47.694Z,3.50
2018-01-02T05:22:47.669Z,3.44
2018-01-02T05:23:47.644Z,3.42
2018-01-02T05:24:47.618Z,3.42
2018-01-02T05:25:47.594Z,3.40
2018-01-02T05:26:47.568Z,3.34
2018-01-02T05:27:47.543Z,3.40
2018-01-02T05:28:47.520Z,3.40
2018-01-02T05:29:47.493Z,3.42
2018-01-02T05:30:47.470Z,3.42
2018-01-02T05:31:47.445Z,3.47
2018-01-02T05:32:47.419Z,3.41
2018-01-02T05:33:47.395Z,3.41
2018-01-02T05:34:47.370Z,3.45
2018-01-02T05:35:47.351Z,3.41
2018-01-02T05:36:47.321Z,3.47
2018-01-02T05:37:47.295Z,3.50
2018-01-02T05:38:47.270Z,3.53
2018-01-02T05:39:47.246Z,3.50
2018-01-02T05:40:47.221Z,3.55
2018-01-02T05:41:47.194Z,3.55
2018-01-02T05:42:47.170Z,3.58
2018-01-02T05:43:47.144Z,3.48
2018-01-02T05:44:47.121Z,3.50
2018-01-02T05:45:47.100Z,3.60
2018-01-02T05:46:47.071Z,3.65
2018-01-02T05:47:47.045Z,3.62
2018-01-02T05:48:47.020Z,3.65
2018-01-02T05:49:46.995Z,3.65
2018-01-02T05:50:46.970Z,3.63
2018-01-02T05:51:46.945Z,3.62
2018-01-02T05:52:46.920Z,3.66
2018-01-02T05:53:46.896Z,3.66
2018-01-02T05:54:46.870Z,3.60
2018-01-02T05:55:46.846Z,3.63
2018-01-02T05:56:46.822Z,3.73
2018-01-02T05:57:46.795Z,3.73
2018-01-02T05:58:46.771Z,3.77
2018-01-02T05:59:46.747Z,3.73
2018-01-02T06:00:46.722Z,3.73
2018-01-02T06:01:46.695Z,3.76
2018-01-02T06:02:46.671Z,3.65
2018-01-02T06:03:46.896Z,3.69
2018-01-02T06:04:46.622Z,3.73
2018-01-02T06:05:46.596Z,3.74
2018-01-02T06:06:46.572Z,3.63
2018-01-02T06:07:46.551Z,3.70
2018-01-02T06:08:46.522Z,3.70
2018-01-02T06:09:46.497Z,3.81
2018-01-02T06:10:46.473Z,3.73
2018-01-02T06:11:46.449Z,3.68
2018-01-02T06:12:46.423Z,3.74
2018-01-02T06:13:46.398Z,3.73
2018-01-02T06:14:46.373Z,3.74
2018-01-02T06:15:46.348Z,3.78
2018-01-02T06:16:46.325Z,3.76
2018-01-02T06:17:46.299Z,3.77
2018-01-02T06:18:46.274Z,3.80
2018-01-02T06:19:46.249Z,3.76
2018-01-02T06:20:46.225Z,3.83
2018-01-02T06:21:46.200Z,3.81
2018-01-02T06:22:46.176Z,3.81
2018-01-02T06:23:46.150Z,3.83
2018-01-02T06:24:46.127Z,3.88
2018-01-02T06:25:46.100Z,3.91
2018-01-02T06:26:46.077Z,3.78
2018-01-02T06:27:46.053Z,3.94
2018-01-02T06:28:46.034Z,3.81
2018-01-02T06:29:46.002Z,3.84
2018-01-02T06:30:45.978Z,3.81
2018-01-02T06:31:45.955Z,3.80
2018-01-02T06:32:45.933Z,3.92
2018-01-02T06:33:45.902Z,3.81
2018-01-02T06:34:45.879Z,3.96
2018-01-02T06:35:45.855Z,3.84
2018-01-02T06:36:45.830Z,3.86
2018-01-02T06:37:45.806Z,3.83
2018-01-02T06:38:45.780Z,3.83
2018-01-02T06:39:45.757Z,3.86
2018-01-02T06:40:45.733Z,3.83
2018-01-02T06:41:45.707Z,3.84
2018-01-02T06:42:45.683Z,3.99
2018-01-02T06:43:45.659Z,3.94
2018-01-02T06:44:45.634Z,3.95
2018-01-02T06:45:45.609Z,3.95
2018-01-02T06:46:45.584Z,3.94
2018-01-02T06:47:45.560Z,3.95
2018-01-02T06:48:45.541Z,4.04
2018-01-02T06:49:45.511Z,3.98
2018-01-02T06:50:45.487Z,3.98
2018-01-02T06:51:45.464Z,3.99
2018-01-02T06:52:45.440Z,3.99
2018-01-02T06:53:45.415Z,4.02
2018-01-02T06:54:45.390Z,4.05
2018-01-02T06:55:45.366Z,3.98
2018-01-02T06:56:45.341Z,3.96
2018-01-02T06:57:45.317Z,4.06
2018-01-02T06:58:45.292Z,4.05
2018-01-02T06:59:45.270Z,4.08
2018-01-02T07:00:45.245Z,4.01
2018-01-02T07:01:45.220Z,4.08
2018-01-02T07:02:45.196Z,4.10
2018-01-02T07:03:45.172Z,4.06
2018-01-02T07:04:45.148Z,4.17
2018-01-02T07:05:45.125Z,4.17
2018-01-02T07:06:45.099Z,4.17
2018-01-02T07:07:45.077Z,4.08
2018-01-02T07:08:45.050Z,4.19
2018-01-02T07:09:45.176Z,4.08
2018-01-02T07:10:45.001Z,4.19
2018-01-02T07:11:44.978Z,4.30
2018-01-02T07:12:44.954Z,4.20
2018-01-02T07:13:44.928Z,4.17
2018-01-02T07:14:44.904Z,4.20
2018-01-02T07:15:44.882Z,4.17
2018-01-02T07:16:44.858Z,4.20
2018-01-02T07:17:44.832Z,4.19
2018-01-02T07:18:44.810Z,4.30
2018-01-02T07:19:44.784Z,4.22
2018-01-02T07:20:44.761Z,4.20
2018-01-02T07:21:44.736Z,4.24
2018-01-02T07:22:44.711Z,4.34
2018-01-02T07:23:44.686Z,4.28
2018-01-02T07:24:44.663Z,4.28
2018-01-02T07:25:44.889Z,4.32
2018-01-02T07:26:44.614Z,4.35
2018-01-02T07:27:44.591Z,4.30
2018-01-02T07:28:44.567Z,4.42
2018-01-02T07:29:44.546Z,4.41
2018-01-02T07:30:44.768Z,4.38
2018-01-02T07:31:44.494Z,4.44
2018-01-02T07:32:44.472Z,4.41
2018-01-02T07:33:44.446Z,4.40
2018-01-02T07:34:44.421Z,4.38
2018-01-02T07:35:44.648Z,4.45
2018-01-02T07:36:44.374Z,4.45
2018-01-02T07:37:44.350Z,4.48
2018-01-02T07:38:44.325Z,4.48
2018-01-02T07:39:44.301Z,4.48
2018-01-02T07:40:44.278Z,4.55
2018-01-02T07:41:44.255Z,4.56
2018-01-02T07:42:44.230Z,4.63
2018-01-02T07:43:44.206Z,4.60
2018-01-02T07:44:44.182Z,4.62
2018-01-02T07:45:44.162Z,4.62
2018-01-02T07:46:44.133Z,4.62
2018-01-02T07:47:44.110Z,4.70
2018-01-02T07:48:44.086Z,4.71
2018-01-02T07:49:44.060Z,4.73
2018-01-02T07:50:44.036Z,4.71
2018-01-02T07:51:44.015Z,4.74
2018-01-02T07:52:43.988Z,4.70
2018-01-02T07:53:43.964Z,4.68
2018-01-02T07:54:43.939Z,4.77
2018-01-02T07:55:43.916Z,4.71
2018-01-02T07:56:43.892Z,4.75
2018-01-02T07:57:43.866Z,4.71
2018-01-02T07:58:43.848Z,4.74
2018-01-02T07:59:43.970Z,4.84
2018-01-02T08:00:43.796Z,4.75
2018-01-02T08:01:43.770Z,4.82
2018-01-02T08:02:43.750Z,4.82
2018-01-02T08:03:43.722Z,4.78
2018-01-02T08:04:43.848Z,4.75
2018-01-02T08:05:43.677Z,4.71
2018-01-02T08:06:43.651Z,4.74
2018-01-02T08:07:43.627Z,4.77
2018-01-02T08:08:43.603Z,4.75
2018-01-02T08:09:43.579Z,4.84
2018-01-02T08:10:43.554Z,4.78
2018-01-02T08:11:43.539Z,4.74
2018-01-02T08:12:43.508Z,4.80
2018-01-02T08:13:43.482Z,4.80
2018-01-02T08:14:44.259Z,4.74
2018-01-02T08:15:43.436Z,4.77
2018-01-02T08:16:43.411Z,4.80
2018-01-02T08:17:43.387Z,4.89
2018-01-02T08:18:43.362Z,4.90
2018-01-02T08:19:43.492Z,4.84
2018-01-02T08:20:43.314Z,4.82
2018-01-02T08:21:43.291Z,4.90
2018-01-02T08:22:43.266Z,4.89
2018-01-02T08:23:43.243Z,4.80
2018-01-02T08:24:43.369Z,4.80
2018-01-02T08:25:43.195Z,4.84
2018-01-02T08:26:43.171Z,4.87
2018-01-02T08:27:43.147Z,4.86
2018-01-02T08:28:43.123Z,4.89
2018-01-02T08:29:43.200Z,4.90
2018-01-02T08:30:43.080Z,4.90
2018-01-02T08:31:43.053Z,4.86
2018-01-02T08:32:43.028Z,4.96
2018-01-02T08:33:43.003Z,4.92
2018-01-02T08:34:42.980Z,4.90
2018-01-02T08:35:42.957Z,4.97
2018-01-02T08:36:42.933Z,4.97
2018-01-02T08:37:42.908Z,4.99
2018-01-02T08:38:42.885Z,4.99
2018-01-02T08:39:42.961Z,4.97
2018-01-02T08:40:42.839Z,4.99
2018-01-02T08:41:42.814Z,5.02
2018-01-02T08:42:42.793Z,5.04
2018-01-02T08:43:42.767Z,5.07
2018-01-02T08:44:42.743Z,5.10
2018-01-02T08:45:42.719Z,5.10
2018-01-02T08:46:42.696Z,5.08
2018-01-02T08:47:42.672Z,5.07
2018-01-02T08:48:42.649Z,5.08
2018-01-02T08:49:42.624Z,5.05
2018-01-02T08:50:42.601Z,5.12
2018-01-02T08:51:42.582Z,5.04
2018-01-02T08:52:42.554Z,5.07
2018-01-02T08:53:42.530Z,5.14
2018-01-02T08:54:42.512Z,5.18
2018-01-02T08:55:42.483Z,5.14
2018-01-02T08:56:42.461Z,5.12
2018-01-02T08:57:42.436Z,5.17
2018-01-02T08:58:42.412Z,5.26
2018-01-02T08:59:42.388Z,5.14
2018-01-02T09:00:42.367Z,5.18
2018-01-02T09:01:43.292Z,5.17
2018-01-02T09:02:42.319Z,5.32
2018-01-02T09:03:42.324Z,5.17
2018-01-02T09:04:42.273Z,5.26
2018-01-02T09:05:42.249Z,5.20
2018-01-02T09:06:42.226Z,5.23
2018-01-02T09:07:42.203Z,5.25
2018-01-02T09:08:42.180Z,5.25
2018-01-02T09:09:42.156Z,5.33
2018-01-02T09:10:42.139Z,5.33
2018-01-02T09:11:42.111Z,5.33
2018-01-02T09:12:42.337Z,5.33
2018-01-02T09:13:42.064Z,5.36
2018-01-02T09:14:42.040Z,5.39
2018-01-02T09:15:42.018Z,5.36
2018-01-02T09:16:41.996Z,5.39
2018-01-02T09:17:41.972Z,5.36
2018-01-02T09:18:41.951Z,5.43
2018-01-02T09:19:41.925Z,5.33
2018-01-02T09:20:41.903Z,5.44
2018-01-02T09:21:41.884Z,5.39
2018-01-02T09:22:41.856Z,5.39
2018-01-02T09:23:41.833Z,5.41
2018-01-02T09:24:41.810Z,5.39
2018-01-02T09:25:41.786Z,5.41
2018-01-02T09:26:41.763Z,5.44
2018-01-02T09:27:42.041Z,5.47
2018-01-02T09:28:41.718Z,5.44
2018-01-02T09:29:41.693Z,5.46
2018-01-02T09:30:41.672Z,5.44
2018-01-02T09:31:41.649Z,5.39
2018-01-02T09:32:41.876Z,5.44
2018-01-02T09:33:41.601Z,5.41
2018-01-02T09:34:41.580Z,5.47
2018-01-02T09:35:41.557Z,5.41
2018-01-02T09:36:41.533Z,5.46
2018-01-02T09:37:41.510Z,5.44
2018-01-02T09:38:41.486Z,5.47
2018-01-02T09:39:41.464Z,5.48
2018-01-02T09:40:41.440Z,5.53
2018-01-02T09:41:41.416Z,5.50
2018-01-02T09:42:41.395Z,5.47
2018-01-02T09:43:41.372Z,5.48
2018-01-02T09:44:41.349Z,5.51
2018-01-02T09:45:41.325Z,5.48
2018-01-02T09:46:41.301Z,5.48
2018-01-02T09:47:41.279Z,5.56
2018-01-02T09:48:41.256Z,5.48
2018-01-02T09:49:41.233Z,5.54
2018-01-02T09:50:41.216Z,5.54
2018-01-02T09:51:41.187Z,5.59
2018-01-02T09:52:41.164Z,5.56
2018-01-02T09:53:41.139Z,5.61
2018-01-02T09:54:41.267Z,5.54
2018-01-02T09:55:41.096Z,5.57
2018-01-02T09:56:41.072Z,5.57
2018-01-02T09:57:41.048Z,5.64
2018-01-02T09:58:41.025Z,5.56
2018-01-02T09:59:41.102Z,5.62
2018-01-02T10:00:40.980Z,5.59
2018-01-02T10:01:40.956Z,5.61
2018-01-02T10:02:40.933Z,5.61
2018-01-02T10:03:40.910Z,5.61
2018-01-02T10:04:40.888Z,5.62
2018-01-02T10:05:40.864Z,5.61
2018-01-02T10:06:40.842Z,5.69
2018-01-02T10:07:40.819Z,5.69
2018-01-02T10:08:40.797Z,5.71
2018-01-02T10:09:40.774Z,5.73
2018-01-02T10:10:40.750Z,5.80
2018-01-02T10:11:40.732Z,5.76
2018-01-02T10:12:40.706Z,5.72
2018-01-02T10:13:41.734Z,5.73
2018-01-02T10:14:40.665Z,5.80
2018-01-02T10:15:40.640Z,5.89
2018-01-02T10:16:40.619Z,5.87
2018-01-02T10:17:40.594Z,5.87
2018-01-02T10:18:40.576Z,5.82
2018-01-02T10:19:40.550Z,5.98
2018-01-02T10:20:40.529Z,5.91
2018-01-02T10:21:40.506Z,5.84
2018-01-02T10:22:40.484Z,5.93
2018-01-02T10:23:40.462Z,5.91
2018-01-02T10:24:40.692Z,5.99
2018-01-02T10:25:40.418Z,5.99
2018-01-02T10:26:40.398Z,5.93
2018-01-02T10:27:40.376Z,5.93
2018-01-02T10:28:40.355Z,5.97
2018-01-02T10:29:40.332Z,5.89
2018-01-02T10:30:40.459Z,5.94
2018-01-02T10:31:40.288Z,5.91
2018-01-02T10:32:40.267Z,5.97
2018-01-02T10:33:40.243Z,5.93
2018-01-02T10:34:40.221Z,6.01
2018-01-02T10:35:40.200Z,5.87
2018-01-02T10:36:40.178Z,5.86
2018-01-02T10:37:40.155Z,5.87
2018-01-02T10:38:41.035Z,5.86
2018-01-02T10:39:40.113Z,5.93
2018-01-02T10:40:40.090Z,5.99
2018-01-02T10:41:40.067Z,5.82
2018-01-02T10:42:40.047Z,5.87
2018-01-02T10:43:40.028Z,5.86
2018-01-02T10:44:40.002Z,5.87
2018-01-02T10:45:39.980Z,5.87
2018-01-02T10:46:39.957Z,5.90
2018-01-02T10:47:39.936Z,5.83
2018-01-02T10:48:39.912Z,5.97
2018-01-02T10:49:40.140Z,5.90
2018-01-02T10:50:39.867Z,5.94
2018-01-02T10:51:39.845Z,5.90
2018-01-02T10:52:39.824Z,5.90
2018-01-02T10:53:39.800Z,5.91
2018-01-02T10:54:39.779Z,5.91
2018-01-02T10:55:39.757Z,5.99
2018-01-02T10:56:39.735Z,6.01
2018-01-02T10:57:39.711Z,5.98
2018-01-02T10:58:39.688Z,5.91
2018-01-02T10:59:39.668Z,6.04
2018-01-02T11:00:39.645Z,6.02
2018-01-02T11:01:39.623Z,6.07
2018-01-02T11:02:39.601Z,6.01
2018-01-02T11:03:39.578Z,6.08
2018-01-02T11:04:39.556Z,6.05
2018-01-02T11:05:39.533Z,5.93
2018-01-02T11:06:39.511Z,6.01
2018-01-02T11:07:39.494Z,6.08
2018-01-02T11:08:39.468Z,5.99
2018-01-02T11:09:39.694Z,6.08
2018-01-02T11:10:39.422Z,6.09
2018-01-02T11:11:39.401Z,6.08
2018-01-02T11:12:39.378Z,6.07
2018-01-02T11:13:39.355Z,6.05
2018-01-02T11:14:39.334Z,6.04
2018-01-02T11:15:39.412Z,6.02
2018-01-02T11:16:39.291Z,6.04
2018-01-02T11:17:39.268Z,6.08
2018-01-02T11:18:39.245Z,6.07
2018-01-02T11:19:39.224Z,6.01
2018-01-02T11:20:39.200Z,6.02
2018-01-02T11:21:39.178Z,5.99
2018-01-02T11:22:39.157Z,5.98
2018-01-02T11:23:39.134Z,6.01
2018-01-02T11:24:39.113Z,6.04
2018-01-02T11:25:39.089Z,6.02
2018-01-02T11:26:39.072Z,6.08
2018-01-02T11:27:39.045Z,6.02
2018-01-02T11:28:39.022Z,6.04
2018-01-02T11:29:39.000Z,6.07
2018-01-02T11:30:38.979Z,6.04
2018-01-02T11:31:38.956Z,6.04
2018-01-02T11:32:38.934Z,5.98
2018-01-02T11:33:38.910Z,5.99
2018-01-02T11:34:38.890Z,5.94
2018-01-02T11:35:38.866Z,6.05
2018-01-02T11:36:38.844Z,5.98
2018-01-02T11:37:38.821Z,6.05
2018-01-02T11:38:38.798Z,6.02
2018-01-02T11:39:38.776Z,6.12
2018-01-02T11:40:38.763Z,6.14
2018-01-02T11:41:38.732Z,6.19
2018-01-02T11:42:38.710Z,6.14
2018-01-02T11:43:38.689Z,6.16
2018-01-02T11:44:38.665Z,6.19
2018-01-02T11:45:38.642Z,6.17
2018-01-02T11:46:38.620Z,6.19
2018-01-02T11:47:38.599Z,6.16
2018-01-02T11:48:38.576Z,6.12
2018-01-02T11:49:38.554Z,6.16
2018-01-02T11:50:38.532Z,6.19
2018-01-02T11:51:38.510Z,6.16
2018-01-02T11:52:38.488Z,6.14
2018-01-02T11:53:38.466Z,6.12
2018-01-02T11:54:38.443Z,6.14
2018-01-02T11:55:38.421Z,6.05
2018-01-02T11:56:38.400Z,6.16
2018-01-02T11:57:38.379Z,6.16
2018-01-02T11:58:38.355Z,6.19
2018-01-02T11:59:38.333Z,6.16
2018-01-02T12:00:38.311Z,6.08
2018-01-02T12:01:38.288Z,6.19
2018-01-02T12:02:38.267Z,6.05
2018-01-02T12:03:38.245Z,6.05
2018-01-02T12:04:38.222Z,6.11
2018-01-02T12:05:38.199Z,6.20
2018-01-02T12:06:38.178Z,6.07
2018-01-02T12:07:38.155Z,6.02
2018-01-02T12:08:38.133Z,6.08
2018-01-02T12:09:38.110Z,6.09
2018-01-02T12:10:38.089Z,6.08
2018-01-02T12:11:38.078Z,6.01
2018-01-02T12:12:38.047Z,5.99
2018-01-02T12:13:38.021Z,5.94
2018-01-02T12:14:38.001Z,5.97
2018-01-02T12:15:37.978Z,5.94
2018-01-02T12:16:37.957Z,5.94
2018-01-02T12:17:37.932Z,5.93
2018-01-02T12:18:37.911Z,5.90
2018-01-02T12:19:37.887Z,5.97
2018-01-02T12:20:37.864Z,5.93
2018-01-02T12:21:38.094Z,5.98
2018-01-02T12:22:37.818Z,5.94
2018-01-02T12:23:37.796Z,5.89
2018-01-02T12:24:37.773Z,5.97
2018-01-02T12:25:37.751Z,5.90
2018-01-02T12:26:38.632Z,5.91
2018-01-02T12:27:37.706Z,5.89
2018-01-02T12:28:37.683Z,5.93
2018-01-02T12:29:37.659Z,5.93
2018-01-02T12:30:37.637Z,5.84
2018-01-02T12:31:37.615Z,5.91
2018-01-02T12:32:38.493Z,5.93
2018-01-02T12:33:37.568Z,5.84
2018-01-02T12:34:37.546Z,5.86
2018-01-02T12:35:37.528Z,5.83
2018-01-02T12:36:37.501Z,5.86
2018-01-02T12:37:37.476Z,5.87
2018-01-02T12:38:37.472Z,5.82
2018-01-02T12:39:37.431Z,5.84
2018-01-02T12:40:37.410Z,5.83
2018-01-02T12:41:37.384Z,5.83
2018-01-02T12:42:37.363Z,5.84
2018-01-02T12:43:37.340Z,5.72
2018-01-02T12:44:37.315Z,5.73
2018-01-02T12:45:37.293Z,5.76
2018-01-02T12:46:37.271Z,5.72
2018-01-02T12:47:37.247Z,5.80
2018-01-02T12:48:37.224Z,5.76
2018-01-02T12:49:37.201Z,5.71
2018-01-02T12:50:37.184Z,5.69
2018-01-02T12:51:37.155Z,5.66
2018-01-02T12:52:37.136Z,5.73
2018-01-02T12:53:37.107Z,5.75
2018-01-02T12:54:37.084Z,5.68
2018-01-02T12:55:37.061Z,5.76
2018-01-02T12:56:37.040Z,5.82
2018-01-02T12:57:37.016Z,5.75
2018-01-02T12:58:36.993Z,5.73
2018-01-02T12:59:36.970Z,5.72
2018-01-02T13:00:36.946Z,5.80
2018-01-02T13:01:36.926Z,5.76
2018-01-02T13:02:36.900Z,5.80
2018-01-02T13:03:36.877Z,5.83
2018-01-02T13:04:36.854Z,5.79
2018-01-02T13:05:36.832Z,5.79
2018-01-02T13:06:36.809Z,5.82
2018-01-02T13:07:36.788Z,5.79
2018-01-02T13:08:36.767Z,5.75
2018-01-02T13:09:36.741Z,5.80
2018-01-02T13:10:36.718Z,5.73
2018-01-02T13:11:36.695Z,5.80
2018-01-02T13:12:36.674Z,5.76
2018-01-02T13:13:36.648Z,5.80
2018-01-02T13:14:36.625Z,5.82
2018-01-02T13:15:36.605Z,5.80
2018-01-02T13:16:36.580Z,5.80
2018-01-02T13:17:36.557Z,5.86
2018-01-02T13:18:36.534Z,5.86